Latest Weather Observations for Point Perpendicular

IDN60801

Issued at 2:52 pm EST Monday 23 September 2019 (issued every 10 minutes, with the page automatically refreshed every 10 minutes)

About weather observations | Map of weather stations | Latest weather observations for NSW | Other Formats
Station Details ID: 068151 Name: POINT PERPENDICULAR AWS Lat: -35.09 Lon: 150.80 Height: 85.0 m
Data from the previous 72 hours. | See also: Recent months at Point Perpendicular
Date/Time
EST
Temp
°C
App
Temp
°C
Dew
Point
°C
Rel
Hum
%
Delta-T
°C
Wind Press
QNH
hPa
Press
MSL
hPa
Rain since
9am
mm
Dir  Spd
km/h
Gust
km/h
Spd
kts
Gust
kts
23/02:30pm 16.6 12.8 1.5 36 6.7 W 11 22 6 12 1020.2 1020.1 0.0
23/02:00pm 16.4 12.3 4.4 45 5.6 WNW 15 32 8 17 1020.2 1020.1 0.0
23/01:30pm 15.5 10.1 4.3 47 5.2 WSW 22 44 12 24 1020.2 1020.1 0.0
23/01:00pm 17.3 14.3 3.9 41 6.3 WNW 9 19 5 10 1020.1 1020.0 0.0
23/12:30pm 16.8 13.0 2.0 37 6.7 SW 11 19 6 10 1020.4 1020.3 0.0
23/12:00pm 16.7 12.7 2.7 39 6.4 WSW 13 20 7 11 1020.6 1020.5 0.0
23/11:30am 17.3 13.2 2.5 37 6.8 WSW 13 22 7 12 1021.0 1020.9 0.0
23/11:00am 16.3 11.6 3.0 41 6.1 WSW 17 24 9 13 1021.3 1021.3 0.0
23/10:30am 16.2 10.4 2.2 39 6.3 WSW 22 33 12 18 1021.7 1021.7 0.0
23/10:00am 16.1 12.0 2.5 40 6.1 WSW 13 28 7 15 1021.8 1021.8 0.0
23/09:30am 15.2 12.3 4.6 49 5.0 WSW 9 22 5 12 1022.4 1022.4 0.0
23/09:00am 14.2 11.9 5.0 54 4.3 W 6 17 3 9 1022.4 1022.4 0.0
23/08:30am 13.3 10.7 6.2 62 3.4 WNW 9 17 5 9 1022.6 1022.6 0.0
23/08:00am 12.8 10.0 5.2 60 3.5 NW 9 19 5 10 1022.5 1022.5 0.0
23/07:30am 12.4 9.1 6.2 66 2.9 NW 13 19 7 10 1022.5 1022.5 0.0
23/07:00am 11.3 9.8 7.0 75 2.0 WNW 4 7 2 4 1022.6 1022.6 0.0
23/06:30am 10.2 7.1 7.4 83 1.3 NW 13 17 7 9 1022.2 1022.2 0.0
23/06:00am 10.0 7.8 7.8 86 1.1 NW 9 11 5 6 1022.0 1022.0 0.0
23/05:30am 10.5 8.8 8.4 87 1.0 WNW 7 7 4 4 1022.0 1022.0 0.0
23/05:00am 11.2 10.3 9.3 88 1.0 W 4 7 2 4 1021.8 1021.8 0.0
23/04:30am 11.6 10.9 9.9 89 0.9 WNW 4 6 2 3 1021.6 1021.6 0.0
23/04:00am 11.9 10.9 10.3 90 0.8 WSW 6 11 3 6 1022.0 1022.0 0.0
23/03:30am 12.1 11.6 10.7 91 0.7 W 4 11 2 6 1021.9 1021.9 0.0
23/03:00am 12.2 10.8 10.8 91 0.7 WSW 9 13 5 7 1022.1 1022.1 0.0
23/02:30am 12.6 11.6 11.0 90 0.8 WSW 7 13 4 7 1022.2 1022.2 0.0
23/02:00am 13.1 11.4 11.2 88 1.0 WSW 11 17 6 9 1022.5 1022.5 0.0
23/01:30am 13.7 10.4 10.9 83 1.5 SSW 19 28 10 15 1022.2 1022.2 0.0
23/01:00am 13.9 12.3 11.6 86 1.2 SW 11 20 6 11 1022.3 1022.3 0.0
23/12:30am 13.4 11.2 9.5 77 2.0 SW 11 17 6 9 1022.8 1022.8 0.0
23/12:00am 13.9 12.9 8.9 72 2.5 W 4 6 2 3 1022.7 1022.7 0.0
 
Date/Time
EST
Temp
°C
App
Temp
°C
Dew
Point
°C
Rel
Hum
%
Delta-T
°C
Wind Press
QNH
hPa
Press
MSL
hPa
Rain since
9am
mm
Dir  Spd
km/h
Gust
km/h
Spd
kts
Gust
kts
22/11:30pm 13.6 13.2 12.3 92 0.7 WNW 6 9 3 5 1022.6 1022.6 0.0
22/11:00pm 13.6 13.0 12.2 91 0.8 WNW 7 13 4 7 1022.7 1022.7 0.0
22/10:30pm 14.0 13.4 12.2 89 1.0 NW 7 11 4 6 1022.8 1022.8 0.0
22/10:00pm 14.5 14.1 12.4 87 1.1 NNW 6 7 3 4 1023.0 1023.0 0.0
22/09:30pm 14.4 14.6 11.9 85 1.4 N 2 7 1 4 1023.0 1023.0 0.0
22/09:00pm 14.3 14.0 11.5 83 1.5 NE 4 6 2 3 1022.9 1022.9 0.0
22/08:30pm 14.7 14.1 11.7 82 1.6 NNE 6 7 3 4 1022.9 1022.9 0.0
22/08:00pm 15.1 14.9 11.9 81 1.7 E 4 4 2 2 1023.0 1023.0 0.0
22/07:30pm 15.1 14.4 11.9 81 1.7 NE 7 9 4 5 1022.8 1022.8 0.0
22/07:00pm 15.3 14.8 11.9 80 1.8 NE 6 9 3 5 1022.5 1022.5 0.0
22/06:30pm 15.5 14.4 12.1 80 1.9 NE 9 11 5 6 1021.9 1021.9 0.0
22/06:00pm 15.6 14.8 11.8 78 2.1 ENE 7 9 4 5 1022.0 1022.0 0.0
22/05:30pm 15.8 15.2 12.2 79 2.0 ENE 7 11 4 6 1021.7 1021.7 0.0
22/05:00pm 16.2 15.1 12.0 76 2.3 E 9 15 5 8 1021.3 1021.3 0.0
22/04:30pm 16.4 14.9 12.0 75 2.4 E 11 19 6 10 1021.2 1021.2 0.0
22/04:00pm 16.6 14.7 11.7 73 2.7 E 13 22 7 12 1020.7 1020.6 0.0
22/03:30pm 17.3 15.0 11.8 70 3.0 ESE 15 20 8 11 1020.6 1020.5 0.0
22/03:00pm 17.6 15.0 12.1 70 3.0 ESE 17 24 9 13 1020.1 1020.0 0.0
22/02:30pm 17.6 14.9 11.6 68 3.3 ESE 17 24 9 13 1020.2 1020.1 0.0
22/02:00pm 17.6 14.6 11.9 69 3.1 ESE 19 24 10 13 1020.3 1020.2 0.0
22/01:30pm 17.0 14.6 11.5 70 3.0 ESE 15 26 8 14 1020.4 1020.3 0.0
22/01:00pm 16.9 14.2 11.8 72 2.8 SE 17 24 9 13 1020.5 1020.4 0.0
22/12:30pm 17.3 14.8 12.4 73 2.7 SE 17 24 9 13 1020.7 1020.6 0.0
22/12:00pm 17.6 15.3 12.9 74 2.6 SSE 17 22 9 12 1020.8 1020.7 0.0
22/11:30am 17.9 15.9 12.8 72 2.9 SSE 15 22 8 12 1021.0 1020.9 0.0
22/11:00am 17.5 14.5 9.4 59 4.2 S 15 24 8 13 1021.0 1020.9 0.0
22/10:30am 17.8 13.8 6.7 48 5.5 SW 17 24 9 13 1021.5 1021.5 0.0
22/10:00am 17.5 13.1 2.7 37 6.8 WSW 15 20 8 11 1021.7 1021.7 0.0
22/09:30am 16.7 13.5 5.0 46 5.6 WSW 11 20 6 11 1021.8 1021.8 0.0
22/09:00am 16.5 14.2 5.5 48 5.3 W 7 19 4 10 1021.5 1021.5 1.4
22/08:30am 16.1 13.5 6.0 51 4.9 WNW 9 17 5 9 1021.4 1021.4 1.4
22/08:00am 15.9 13.1 7.1 56 4.3 WNW 11 15 6 8 1021.1 1021.1 1.4
22/07:30am 15.8 13.5 7.3 57 4.2 WNW 9 19 5 10 1020.9 1020.8 1.4
22/07:00am 15.8 13.1 7.3 57 4.2 WNW 11 19 6 10 1020.2 1020.1 1.4
22/06:30am 15.9 12.9 7.7 58 4.1 WNW 13 17 7 9 1019.7 1019.6 1.4
22/06:00am 15.8 13.0 8.5 62 3.7 WNW 13 20 7 11 1019.2 1019.1 1.4
22/05:30am 15.9 13.6 9.1 64 3.5 WNW 11 15 6 8 1018.6 1018.5 1.4
22/05:00am 16.0 13.7 10.5 70 2.9 WNW 13 22 7 12 1018.1 1018.0 1.4
22/04:30am 16.4 14.7 9.8 65 3.5 WNW 9 13 5 7 1017.6 1017.5 1.4
22/04:00am 16.7 15.4 10.1 65 3.5 W 7 17 4 9 1017.4 1017.3 1.4
22/03:30am 17.0 15.7 11.1 68 3.2 WNW 9 15 5 8 1017.3 1017.2 1.4
22/03:00am 17.2 15.8 10.8 66 3.4 WNW 9 13 5 7 1016.9 1016.8 1.4
22/02:30am 17.5 16.6 11.5 68 3.3 WNW 7 13 4 7 1017.2 1017.1 1.4
22/02:00am 18.0 17.2 11.8 67 3.4 WNW 7 9 4 5 1017.2 1017.1 1.4
22/01:30am 18.1 17.3 12.8 71 3.0 WNW 9 15 5 8 1017.4 1017.3 1.4
22/01:00am 17.4 16.6 13.9 80 2.0 NW 11 15 6 8 1017.3 1017.2 1.4
22/12:30am 17.5 16.7 15.0 85 1.5 NNW 13 19 7 10 1017.2 1017.1 1.4
22/12:00am 17.5 15.5 15.5 88 1.2 N 20 28 11 15 1017.3 1017.2 1.4
 
Date/Time
EST
Temp
°C
App
Temp
°C
Dew
Point
°C
Rel
Hum
%
Delta-T
°C
Wind Press
QNH
hPa
Press
MSL
hPa
Rain since
9am
mm
Dir  Spd
km/h
Gust
km/h
Spd
kts
Gust
kts
21/11:30pm 17.1 15.2 15.8 92 0.8 N 20 26 11 14 1017.1 1017.0 1.4
21/11:00pm 17.4 15.6 16.1 92 0.8 NNE 20 28 11 15 1016.4 1016.3 1.4
21/10:30pm 17.7 15.1 15.9 89 1.1 NNE 24 33 13 18 1016.5 1016.4 1.4
21/10:00pm 18.0 14.6 15.8 87 1.3 NNE 28 43 15 23 1016.4 1016.3 1.4
21/09:30pm 17.4 13.7 15.9 91 0.9 NNE 30 41 16 22 1016.3 1016.2 1.4
21/09:00pm 17.8 14.0 15.8 88 1.2 NNE 30 39 16 21 1016.7 1016.6 1.4
21/08:30pm 18.1 14.1 15.2 83 1.7 NNE 30 41 16 22 1017.1 1017.0 1.4
21/08:00pm 17.6 14.2 15.8 89 1.1 NNE 28 39 15 21 1016.9 1016.8 1.4
21/07:30pm 17.7 14.7 15.9 89 1.1 NNE 26 39 14 21 1016.7 1016.6 1.4
21/07:00pm 17.7 15.5 15.9 89 1.1 NNE 22 33 12 18 1016.4 1016.3 1.4
21/06:30pm 17.6 13.9 15.9 90 1.0 NNE 30 43 16 23 1016.0 1015.9 1.4
21/06:00pm 17.4 13.7 16.1 92 0.8 NNE 30 44 16 24 1016.0 1015.9 1.4
21/05:47pm 17.4 13.7 15.9 91 0.9 NNE 30 48 16 26 1015.9 1015.8 1.4
21/05:30pm 17.6 14.3 16.1 91 0.9 NNE 28 39 15 21 1015.8 1015.7 1.4
21/05:00pm 17.4 15.2 15.9 91 0.9 NNE 22 30 12 16 1016.4 1016.3 1.4
21/04:30pm 17.5 16.3 16.0 91 0.9 NNE 17 24 9 13 1017.0 1016.9 1.4
21/04:00pm 17.4 15.6 15.9 91 0.9 N 20 28 11 15 1017.4 1017.3 1.4
21/03:30pm 17.8 16.6 16.0 89 1.1 N 17 30 9 16 1017.8 1017.7 1.4
21/03:00pm 17.6 14.2 15.9 90 1.0 N 28 41 15 22 1016.7 1016.6 1.0
21/02:36pm 17.6 12.2 16.1 91 0.9 NNE 39 57 21 31 1015.9 1015.8 1.0
21/02:30pm 17.8 12.2 16.5 92 0.8 NNE 41 57 22 31 1015.8 1015.7 1.0
21/02:03pm 17.1 12.4 15.8 92 0.8 NNE 35 54 19 29 1015.7 1015.6 1.0
21/02:00pm 17.1 12.8 15.8 92 0.8 NNE 33 48 18 26 1015.8 1015.7 0.8
21/01:30pm 17.6 13.1 15.0 85 1.5 NNE 32 50 17 27 1016.2 1016.1 0.0
21/01:26pm 17.9 13.5 15.2 84 1.6 NNE 32 50 17 27 1016.2 1016.1 0.0
21/01:00pm 18.3 13.7 15.0 81 1.9 NNE 33 46 18 25 1016.4 1016.3 0.0
21/12:41pm 19.0 13.5 14.7 76 2.5 NNE 37 56 20 30 1016.2 1016.1 0.0
21/12:30pm 20.0 13.6 15.4 75 2.7 NNE 43 57 23 31 1016.4 1016.3 0.0
21/12:00pm 19.7 14.8 15.4 76 2.5 NNE 35 56 19 30 1016.8 1016.7 0.0
21/11:56am 19.6 14.8 15.5 77 2.4 NNE 35 54 19 29 1017.0 1016.9 0.0
21/11:30am 19.5 14.2 15.2 76 2.5 NNE 37 52 20 28 1017.6 1017.5 0.0
21/11:00am 19.1 14.5 15.0 77 2.4 NNE 33 48 18 26 1018.3 1018.2 0.0
21/10:51am 19.4 14.5 15.3 77 2.4 NNE 35 54 19 29 1018.6 1018.5 0.0
21/10:30am 19.6 13.9 15.3 76 2.5 NNE 39 54 21 29 1018.9 1018.8 0.0
21/10:03am 19.1 14.5 15.0 77 2.4 NNE 33 52 18 28 1019.5 1019.4 0.0
21/10:00am 19.3 14.4 15.4 78 2.3 NNE 35 52 19 28 1019.5 1019.4 0.0
21/09:38am 18.8 13.1 15.1 79 2.2 NNE 39 57 21 31 1019.6 1019.5 0.0
21/09:30am 18.8 12.7 15.1 79 2.2 NNE 41 57 22 31 1019.7 1019.6 0.0
21/09:00am 18.2 12.0 14.9 81 1.9 NNE 41 59 22 32 1020.0 1019.9 0.0
21/08:30am 17.8 12.3 14.7 82 1.8 NNE 37 57 20 31 1020.2 1020.1 0.0
21/08:00am 17.6 12.4 14.5 82 1.8 NNE 35 54 19 29 1020.3 1020.2 0.0
21/07:48am 17.5 12.4 14.8 84 1.6 NNE 35 54 19 29 1020.2 1020.1 0.0
21/07:30am 17.3 12.2 14.9 86 1.4 NNE 35 48 19 26 1020.2 1020.1 0.0
21/07:19am 17.2 12.6 15.0 87 1.3 NNE 33 52 18 28 1020.1 1020.0 0.0
21/07:00am 17.0 12.4 15.0 88 1.2 NNE 33 48 18 26 1020.2 1020.1 0.0
21/06:30am 16.9 12.3 15.2 90 1.0 NNE 33 52 18 28 1020.0 1019.9 0.0
21/06:00am 16.9 12.0 15.4 91 0.9 NNE 35 52 19 28 1019.8 1019.7 0.0
21/05:36am 17.1 11.5 15.4 90 1.0 NNE 39 59 21 32 1019.8 1019.7 0.0
21/05:30am 17.1 11.5 15.4 90 1.0 NNE 39 52 21 28 1019.7 1019.6 0.0
21/05:00am 17.2 11.3 15.7 91 0.9 NNE 41 54 22 29 1019.5 1019.4 0.0
21/04:30am 17.2 11.7 15.7 91 0.9 NNE 39 57 21 31 1019.5 1019.4 0.0
21/04:00am 17.2 11.6 15.5 90 1.0 NNE 39 57 21 31 1019.7 1019.6 0.0
21/03:30am 17.2 11.6 15.5 90 1.0 NNE 39 57 21 31 1020.0 1019.9 0.0
21/03:22am 17.2 12.4 15.7 91 0.9 NNE 35 57 19 31 1019.9 1019.8 0.0
21/03:00am 17.3 12.2 15.8 91 0.9 NNE 37 50 20 27 1020.2 1020.1 0.0
21/02:30am 17.2 11.7 15.7 91 0.9 NNE 39 54 21 29 1020.5 1020.4 0.0
21/02:18am 17.3 12.5 15.6 90 1.0 NNE 35 56 19 30 1020.7 1020.6 0.0
21/02:00am 17.4 12.6 15.6 89 1.1 NNE 35 50 19 27 1021.1 1021.1 0.0
21/01:31am 17.3 12.5 15.6 90 1.0 NNE 35 54 19 29 1021.5 1021.5 0.0
21/01:30am 17.3 12.1 15.6 90 1.0 NNE 37 54 20 29 1021.5 1021.5 0.0
21/01:22am 17.3 12.5 15.6 90 1.0 NNE 35 54 19 29 1021.7 1021.7 0.0
21/01:00am 17.4 13.0 15.6 89 1.1 NNE 33 46 18 25 1021.8 1021.8 0.0
21/12:30am 17.4 12.1 15.4 88 1.2 NNE 37 52 20 28 1022.3 1022.3 0.0
21/12:00am 17.4 12.1 15.4 88 1.2 NNE 37 54 20 29 1022.6 1022.6 0.0
 
Date/Time
EST
Temp
°C
App
Temp
°C
Dew
Point
°C
Rel
Hum
%
Delta-T
°C
Wind Press
QNH
hPa
Press
MSL
hPa
Rain since
9am
mm
Dir  Spd
km/h
Gust
km/h
Spd
kts
Gust
kts
20/11:37pm 17.3 12.5 15.5 89 1.1 NNE 35 54 19 29 1022.6 1022.6 0.0
20/11:30pm 17.2 12.3 15.2 88 1.2 NNE 35 48 19 26 1022.7 1022.7 0.0
20/11:00pm 17.1 12.6 15.3 89 1.0 NNE 33 50 18 27 1022.8 1022.8 0.0
20/10:30pm 17.2 12.9 15.4 89 1.1 NNE 32 46 17 25 1023.1 1023.1 0.0
20/10:00pm 17.2 12.4 15.5 90 1.0 NNE 35 52 19 28 1023.3 1023.3 0.0
20/09:51pm 17.2 12.9 15.4 89 1.1 NNE 32 52 17 28 1023.3 1023.3 0.0
20/09:30pm 17.2 13.3 15.4 89 1.1 NNE 30 46 16 25 1023.2 1023.2 0.0
20/09:05pm 17.3 13.3 15.3 88 1.2 NNE 30 48 16 26 1023.8 1023.7 0.0
20/09:00pm 17.4 13.1 15.4 88 1.2 NNE 32 48 17 26 1023.8 1023.7 0.0
20/08:40pm 17.5 13.5 15.3 87 1.3 NNE 30 48 16 26 1023.7 1023.6 0.0
20/08:30pm 17.5 13.2 15.3 87 1.3 NNE 32 48 17 26 1023.7 1023.6 0.0
20/08:00pm 17.4 13.5 15.4 88 1.2 NNE 30 41 16 22 1023.6 1023.5 0.0
20/07:30pm 17.3 13.8 15.5 89 1.1 NNE 28 41 15 22 1023.2 1023.2 0.0
20/07:00pm 17.4 13.5 15.4 88 1.2 NNE 30 43 16 23 1023.1 1023.1 0.0
20/06:30pm 17.3 13.8 15.5 89 1.1 NNE 28 41 15 22 1023.2 1023.2 0.0
20/06:00pm 17.2 13.5 15.0 87 1.3 NNE 28 41 15 22 1023.2 1023.2 0.0
20/05:30pm 17.4 14.1 15.0 86 1.4 NNE 26 41 14 22 1022.9 1022.9 0.0
20/05:00pm 18.1 14.6 15.4 84 1.6 NNE 28 44 15 24 1022.7 1022.7 0.0
20/04:30pm 18.5 14.5 15.2 81 1.9 NNE 30 43 16 23 1022.6 1022.6 0.0
20/04:00pm 18.9 15.3 15.2 79 2.2 NNE 28 41 15 22 1022.5 1022.5 0.0
20/03:30pm 19.4 15.1 15.3 77 2.4 NNE 32 43 17 23 1022.4 1022.4 0.0
20/03:12pm 19.3 15.8 15.4 78 2.3 NNE 28 46 15 25 1022.4 1022.4 0.0
20/03:00pm 19.4 15.4 15.3 77 2.4 NNE 30 43 16 23 1022.6 1022.6 0.0

Other formats

Comma delimited format used in spreadsheet applications
http://www.bom.gov.au/fwo/IDN60801/IDN60801.95940.axf

JavaScript Object Notation format (JSON) in row-major order
http://www.bom.gov.au/fwo/IDN60801/IDN60801.95940.json

Data quality

Most of these data are generated automatically and are frequently updated. Quality checks on data are not normally performed. It is possible for incorrect values to appear. Refer to information at About Latest Weather Observations and please check the disclaimer before using these data.